Schaupps, Nebraska
Current Conditions -  °F | °C
As of 7:53 PM on Monday 20 Oct 2014 (Local Time) from KODX Reporting Station
Clear Clear  
Wind Chill: 57°   Ceiling: Unl
Heat Index: 57°   Visibility: 10mi
Dew Point: 42°   Wind: 3mph
Humidity: 57%   Direction: 190°S
Pressure: 30.04"   Gusts: NA
Location:  41.3°N, 98.8143°W
Report Text: KODX 210053Z AUTO 19003KT 10SM CLR 14/06 A3004 RMK AO2 SLP181 T01390056
Loading
Personal Weather Stations






























Interactive Weather Map New forecast layout! Learn more

10-Day Weather Forecast

Advertisements
Track Severe Weather on mobile